Time;durP1;ratioP1;P1;durP2;ratioP2;P2;SDS_P1;SDS_P2;PMS_P1;PMS_P2;Temp;Humidity;BMP_temperature;BMP_pressure;BME280_temperature;BME280_humidity;BME280_pressure;Samples;Min_cycle;Max_cycle;Signal;HPM_P1;HPM_P2
2021/09/14 00:01:11;;;;;;;9.07;5.37;;;19.10;99.80;;;;;;5012822;28;20458;-70
2021/09/14 00:03:36;;;;;;;7.40;6.60;;;19.10;99.90;;;;;;5008593;28;20244;-72
2021/09/14 00:06:02;;;;;;;7.60;6.00;;;19.00;99.90;;;;;;5010178;28;20791;-72
2021/09/14 00:08:28;;;;;;;6.73;6.13;;;19.00;99.90;;;;;;5012850;28;20235;-71
2021/09/14 00:10:53;;;;;;;5.80;5.13;;;19.00;99.80;;;;;;5029269;28;20312;-72
2021/09/14 00:13:19;;;;;;;6.07;5.57;;;19.00;99.90;;;;;;5004182;28;20291;-72
2021/09/14 00:15:45;;;;;;;7.40;6.10;;;19.00;99.90;;;;;;5012528;28;20220;-72
2021/09/14 00:18:11;;;;;;;6.23;5.60;;;19.00;99.90;;;;;;4999810;28;20590;-73
2021/09/14 00:20:36;;;;;;;6.07;5.57;;;18.90;99.90;;;;;;5026421;28;20295;-72
2021/09/14 00:23:03;;;;;;;5.63;5.13;;;18.90;99.90;;;;;;5028405;28;20244;-71
2021/09/14 00:25:30;;;;;;;5.87;5.37;;;18.80;99.90;;;;;;5029738;28;20244;-71
2021/09/14 00:27:55;;;;;;;6.07;5.20;;;18.80;99.90;;;;;;5023695;28;20550;-71
2021/09/14 00:30:21;;;;;;;5.33;4.93;;;18.80;99.90;;;;;;5012687;28;20538;-72
2021/09/14 00:32:47;;;;;;;6.33;5.60;;;18.80;99.90;;;;;;5044999;28;20242;-71
2021/09/14 00:35:13;;;;;;;6.80;6.20;;;18.80;99.90;;;;;;5010334;28;20217;-71
2021/09/14 00:37:38;;;;;;;9.73;6.20;;;18.70;99.90;;;;;;5013170;28;20439;-72
2021/09/14 00:40:05;;;;;;;7.23;5.43;;;18.70;99.90;;;;;;5028766;28;20603;-71
2021/09/14 00:42:31;;;;;;;6.87;5.70;;;18.70;99.90;;;;;;5011440;28;20642;-72
2021/09/14 00:44:57;;;;;;;6.63;6.03;;;18.70;99.90;;;;;;5012304;28;21039;-72
2021/09/14 00:47:23;;;;;;;7.90;5.10;;;18.70;99.90;;;;;;5028898;28;20467;-72
2021/09/14 00:49:49;;;;;;;7.57;5.60;;;18.70;99.90;;;;;;5021788;28;20251;-72
2021/09/14 00:52:15;;;;;;;7.00;5.50;;;18.60;99.90;;;;;;5001742;28;20235;-71
2021/09/14 00:54:41;;;;;;;7.97;5.70;;;18.60;99.90;;;;;;5045698;28;20455;-72
2021/09/14 00:57:07;;;;;;;6.03;5.43;;;18.50;99.90;;;;;;5010456;28;20231;-71
2021/09/14 00:59:33;;;;;;;6.33;5.73;;;18.50;99.90;;;;;;5016648;28;20452;-72
2021/09/14 01:01:59;;;;;;;5.73;5.20;;;18.50;99.90;;;;;;5020359;28;20828;-71
2021/09/14 01:04:25;;;;;;;9.53;5.10;;;18.50;99.90;;;;;;5033911;28;20216;-71
2021/09/14 01:06:51;;;;;;;6.37;5.77;;;18.50;99.90;;;;;;5016536;28;20467;-71
2021/09/14 01:09:16;;;;;;;7.13;6.40;;;18.50;99.90;;;;;;5031842;28;20271;-72
2021/09/14 01:11:43;;;;;;;5.17;4.77;;;18.50;99.90;;;;;;5015582;28;20212;-72
2021/09/14 01:14:09;;;;;;;5.57;5.03;;;18.40;99.90;;;;;;5031546;28;20644;-71
2021/09/14 01:16:38;;;;;;;6.17;5.60;;;18.40;99.90;;;;;;5024906;28;20455;-72
2021/09/14 01:19:06;;;;;;;6.47;5.77;;;18.40;99.90;;;;;;5015623;28;20585;-72
2021/09/14 01:21:33;;;;;;;6.33;5.73;;;18.40;99.90;;;;;;5026174;28;20859;-72
2021/09/14 01:24:00;;;;;;;6.70;5.20;;;18.30;99.90;;;;;;5028771;28;20468;-72
2021/09/14 01:26:29;;;;;;;6.47;5.13;;;18.30;99.90;;;;;;5012829;28;20484;-72
2021/09/14 01:28:55;;;;;;;8.00;5.80;;;18.30;99.90;;;;;;5011869;28;20457;-71
2021/09/14 01:31:22;;;;;;;5.73;5.23;;;18.20;99.90;;;;;;5031197;28;20458;-71
2021/09/14 01:33:52;;;;;;;5.57;5.03;;;18.20;99.90;;;;;;5031645;28;20220;-72
2021/09/14 01:36:21;;;;;;;9.40;5.57;;;18.20;99.90;;;;;;5031899;28;20443;-71
2021/09/14 01:38:48;;;;;;;9.03;5.07;;;18.20;99.90;;;;;;5016280;28;20530;-73
2021/09/14 01:41:15;;;;;;;4.93;4.53;;;18.20;99.90;;;;;;5031203;28;20439;-70
2021/09/14 01:43:42;;;;;;;8.83;6.87;;;18.20;99.90;;;;;;5011860;28;20547;-72
2021/09/14 01:46:09;;;;;;;5.63;5.13;;;18.10;99.90;;;;;;5004465;28;20498;-72
2021/09/14 01:48:35;;;;;;;6.63;5.23;;;18.10;99.90;;;;;;5018386;28;21011;-72
2021/09/14 01:51:02;;;;;;;6.20;5.57;;;18.10;99.90;;;;;;5011135;28;20228;-71
2021/09/14 01:53:30;;;;;;;5.40;4.90;;;18.10;99.90;;;;;;4992681;28;20460;-72
2021/09/14 01:56:05;;;;;;;6.10;5.50;;;18.10;99.90;;;;;;4999688;28;20483;-72
2021/09/14 01:58:37;;;;;;;8.77;5.17;;;18.10;99.90;;;;;;4993351;28;20461;-72
2021/09/14 02:01:30;;;;;;;7.53;5.57;;;18.00;99.90;;;;;;4999675;28;20535;-71
2021/09/14 02:06:48;;;;;;;;;;;;;;;;;;;;;
2021/09/14 02:23:33;;;;;;;;;;;;;;;;;;;;;
2021/09/14 02:42:22;;;;;;;4.80;4.30;;;17.60;99.90;;;;;;5030329;28;20451;-72
2021/09/14 02:58:39;;;;;;;5.17;4.77;;;17.50;99.90;;;;;;5011129;28;20448;-71
2021/09/14 03:01:09;;;;;;;5.83;5.10;;;17.60;99.90;;;;;;5015980;28;20466;-72
2021/09/14 03:03:38;;;;;;;7.77;5.43;;;17.50;99.90;;;;;;5030311;28;20825;-72
2021/09/14 03:06:04;;;;;;;6.93;5.37;;;17.50;99.90;;;;;;5046915;28;20444;-71
2021/09/14 03:08:33;;;;;;;5.57;5.17;;;17.50;99.90;;;;;;5030524;28;20984;-72
2021/09/14 03:11:10;;;;;;;4.90;4.50;;;17.50;99.90;;;;;;5013215;28;20483;-71
2021/09/14 03:13:43;;;;;;;5.80;4.70;;;17.50;99.90;;;;;;5023306;28;20459;-72
2021/09/14 03:16:11;;;;;;;5.17;4.70;;;17.50;99.90;;;;;;5010439;28;21295;-71
2021/09/14 03:18:37;;;;;;;5.63;5.13;;;17.50;99.90;;;;;;5046656;28;20533;-72
2021/09/14 03:21:05;;;;;;;7.70;5.37;;;17.50;99.90;;;;;;5013505;28;20454;-71
2021/09/14 03:23:32;;;;;;;5.43;4.93;;;17.40;99.90;;;;;;5046386;28;20538;-71
2021/09/14 03:25:58;;;;;;;5.93;5.37;;;17.40;99.90;;;;;;4997282;28;20452;-71
2021/09/14 03:28:25;;;;;;;6.10;5.20;;;17.40;99.90;;;;;;5046349;28;21019;-72
2021/09/14 03:30:52;;;;;;;10.23;4.57;;;17.30;99.90;;;;;;5030423;28;20523;-72
2021/09/14 03:33:18;;;;;;;6.23;5.00;;;17.30;99.90;;;;;;5028685;28;20493;-71
2021/09/14 03:35:45;;;;;;;5.33;4.77;;;17.30;99.90;;;;;;5013865;28;20452;-73
2021/09/14 03:38:12;;;;;;;5.97;5.37;;;17.30;99.90;;;;;;5029497;28;20462;-71
2021/09/14 03:40:43;;;;;;;5.73;5.20;;;17.30;99.90;;;;;;5029134;28;20212;-71
2021/09/14 03:43:12;;;;;;;6.47;5.80;;;17.30;99.90;;;;;;5009213;28;20452;-70
2021/09/14 03:45:40;;;;;;;6.73;5.27;;;17.30;99.90;;;;;;4994208;28;20948;-72
2021/09/14 03:48:06;;;;;;;5.43;4.93;;;17.30;99.90;;;;;;4999801;28;20467;-71
2021/09/14 03:50:34;;;;;;;5.90;5.30;;;17.20;99.90;;;;;;5002006;28;20444;-71
2021/09/14 03:53:00;;;;;;;5.63;4.80;;;17.10;99.90;;;;;;5020809;28;20454;-72
2021/09/14 03:55:26;;;;;;;6.53;5.10;;;17.10;99.90;;;;;;5027037;28;20221;-71
2021/09/14 03:57:51;;;;;;;4.97;4.47;;;17.10;99.90;;;;;;5007589;28;20223;-71
2021/09/14 04:00:18;;;;;;;6.90;5.57;;;17.00;99.90;;;;;;5011661;28;20267;-71
2021/09/14 04:03:03;;;;;;;5.43;4.93;;;17.00;99.90;;;;;;4994945;28;20607;-71
2021/09/14 04:05:47;;;;;;;5.67;5.17;;;17.00;99.90;;;;;;5009863;28;20448;-71
2021/09/14 04:10:44;;;;;;;4.70;4.30;;;16.90;99.90;;;;;;5031019;28;20471;-72
2021/09/14 04:13:12;;;;;;;5.53;4.97;;;16.80;99.90;;;;;;5008979;28;20846;-72
2021/09/14 04:15:38;;;;;;;6.10;5.50;;;16.90;99.90;;;;;;5011423;28;20452;-71
2021/09/14 04:18:10;;;;;;;6.27;5.37;;;16.80;99.90;;;;;;5017877;28;20267;-72
2021/09/14 04:20:36;;;;;;;5.90;5.27;;;16.90;99.90;;;;;;5025201;28;20866;-72
2021/09/14 04:23:02;;;;;;;7.80;6.17;;;16.80;99.90;;;;;;5023473;28;20463;-71
2021/09/14 04:25:28;;;;;;;6.13;5.53;;;16.70;99.90;;;;;;5039986;28;20450;-72
2021/09/14 04:27:53;;;;;;;5.50;4.83;;;16.70;99.90;;;;;;4988168;28;20723;-71
2021/09/14 04:30:19;;;;;;;5.87;5.23;;;16.70;99.90;;;;;;5025264;28;20631;-72
2021/09/14 04:32:46;;;;;;;6.30;5.57;;;16.70;99.90;;;;;;5025470;28;20510;-71
2021/09/14 04:35:12;;;;;;;6.57;5.20;;;16.70;99.90;;;;;;5027238;28;20520;-72
2021/09/14 04:37:39;;;;;;;6.27;5.50;;;16.80;99.90;;;;;;5044346;28;20702;-72
2021/09/14 04:40:07;;;;;;;5.63;5.13;;;16.80;99.90;;;;;;5008897;28;20511;-72
2021/09/14 04:42:34;;;;;;;6.70;5.00;;;16.80;99.90;;;;;;5028315;28;20466;-72
2021/09/14 04:44:59;;;;;;;6.90;5.33;;;16.80;99.90;;;;;;5028583;28;20877;-72
2021/09/14 04:47:28;;;;;;;6.33;5.30;;;16.80;99.90;;;;;;5029194;28;20225;-72
2021/09/14 04:49:54;;;;;;;8.63;5.50;;;16.70;99.90;;;;;;5020875;28;20437;-72
2021/09/14 04:52:21;;;;;;;6.00;5.50;;;16.70;99.90;;;;;;5001085;28;20625;-71
2021/09/14 04:54:46;;;;;;;6.27;5.73;;;16.70;99.90;;;;;;4997784;28;20455;-72
2021/09/14 04:57:12;;;;;;;6.83;5.23;;;16.80;99.90;;;;;;5025470;28;20225;-72
2021/09/14 04:59:38;;;;;;;6.17;5.57;;;16.70;99.90;;;;;;5005337;28;20300;-71
2021/09/14 05:02:03;;;;;;;5.80;5.20;;;16.70;99.90;;;;;;5025826;28;20208;-72
2021/09/14 05:04:29;;;;;;;5.23;4.73;;;16.70;99.90;;;;;;5010967;28;20208;-73
2021/09/14 05:06:55;;;;;;;6.33;4.50;;;16.60;99.90;;;;;;5009127;28;20316;-72
2021/09/14 05:09:21;;;;;;;6.77;6.07;;;16.60;99.90;;;;;;5025095;28;20847;-71
2021/09/14 05:11:47;;;;;;;6.10;5.40;;;16.60;99.90;;;;;;5021661;28;20238;-71
2021/09/14 05:14:14;;;;;;;6.10;5.50;;;16.70;99.90;;;;;;5011480;28;20450;-71
2021/09/14 05:17:01;;;;;;;7.90;4.87;;;16.70;99.90;;;;;;5028070;28;20463;-72
2021/09/14 05:19:51;;;;;;;5.53;5.03;;;16.70;99.90;;;;;;5015102;28;20470;-71
2021/09/14 05:22:22;;;;;;;10.90;6.37;;;16.70;99.90;;;;;;5011238;28;20530;-71
2021/09/14 05:24:48;;;;;;;8.47;6.00;;;16.60;99.90;;;;;;5028126;28;20479;-71
2021/09/14 05:27:13;;;;;;;7.10;5.77;;;16.60;99.90;;;;;;5010318;28;21018;-72
2021/09/14 05:29:39;;;;;;;6.53;5.27;;;16.60;99.90;;;;;;5020100;28;20217;-72
2021/09/14 05:32:05;;;;;;;9.67;5.27;;;16.60;99.90;;;;;;5010516;28;20308;-69
2021/09/14 05:34:32;;;;;;;5.63;4.73;;;16.60;99.90;;;;;;5024660;28;20217;-72
2021/09/14 05:36:58;;;;;;;5.77;5.13;;;16.60;99.90;;;;;;5024781;28;20501;-72
2021/09/14 05:39:24;;;;;;;5.80;5.10;;;16.60;99.90;;;;;;5009968;28;20648;-71
2021/09/14 05:41:51;;;;;;;6.83;4.63;;;16.50;99.90;;;;;;5026120;28;20452;-73
2021/09/14 05:44:17;;;;;;;5.83;5.27;;;16.50;99.90;;;;;;5009941;28;20439;-72
2021/09/14 05:46:43;;;;;;;6.27;5.30;;;16.50;99.90;;;;;;5023843;28;20855;-71
2021/09/14 05:49:09;;;;;;;7.90;5.67;;;16.60;99.90;;;;;;5026603;28;20228;-72
2021/09/14 05:51:36;;;;;;;6.20;5.23;;;16.60;99.90;;;;;;5030176;28;20224;-71
2021/09/14 05:54:03;;;;;;;5.63;4.97;;;16.60;99.90;;;;;;5030407;28;20482;-70
2021/09/14 05:56:32;;;;;;;7.07;5.27;;;16.60;99.90;;;;;;5026722;28;20491;-72
2021/09/14 05:59:04;;;;;;;6.10;5.50;;;16.60;99.90;;;;;;5026948;28;20220;-72
2021/09/14 06:01:30;;;;;;;6.10;5.10;;;16.60;99.90;;;;;;5013971;28;20504;-72
2021/09/14 06:03:56;;;;;;;6.80;6.10;;;16.70;99.90;;;;;;5017194;28;20286;-72
2021/09/14 06:06:23;;;;;;;6.13;5.60;;;16.70;99.90;;;;;;5029078;28;20244;-72
2021/09/14 06:08:49;;;;;;;5.40;4.87;;;16.70;99.90;;;;;;5029098;28;20869;-73
2021/09/14 06:11:15;;;;;;;11.73;5.33;;;16.70;99.90;;;;;;4997162;28;20216;-72
2021/09/14 06:13:42;;;;;;;5.23;4.73;;;16.70;99.90;;;;;;5008780;28;20488;-72
2021/09/14 06:16:10;;;;;;;6.50;5.60;;;16.80;99.90;;;;;;4993541;28;21000;-71
2021/09/14 06:18:36;;;;;;;9.07;5.70;;;16.80;99.90;;;;;;4987668;28;20463;-71
2021/09/14 06:21:04;;;;;;;6.10;5.50;;;16.80;99.90;;;;;;4993886;28;20465;-72
2021/09/14 06:23:30;;;;;;;6.57;5.97;;;16.80;99.90;;;;;;5009855;28;20460;-72
2021/09/14 06:25:56;;;;;;;5.87;5.33;;;16.80;99.90;;;;;;4985744;28;20461;-71
2021/09/14 06:28:22;;;;;;;7.00;5.53;;;16.80;99.90;;;;;;5009413;28;20535;-71
2021/09/14 06:30:48;;;;;;;9.23;6.40;;;16.80;99.90;;;;;;4992728;28;20217;-70
2021/09/14 06:33:17;;;;;;;14.30;6.80;;;16.90;99.90;;;;;;5003785;28;20487;-71
2021/09/14 06:35:49;;;;;;;6.87;6.20;;;17.00;99.90;;;;;;5006260;28;20551;-72
2021/09/14 06:38:26;;;;;;;8.73;6.17;;;17.00;99.90;;;;;;5003719;28;20900;-71
2021/09/14 06:40:53;;;;;;;9.13;6.00;;;17.00;99.90;;;;;;5008975;28;20480;-71
2021/09/14 06:43:23;;;;;;;6.30;5.60;;;17.00;99.90;;;;;;5007812;28;21391;-71
2021/09/14 06:46:26;;;;;;;6.80;5.20;;;17.00;99.90;;;;;;4991732;28;20517;-71
2021/09/14 06:49:06;;;;;;;4.93;4.53;;;17.00;99.90;;;;;;4959610;28;20480;-71
2021/09/14 06:51:32;;;;;;;6.60;6.00;;;17.00;99.90;;;;;;4970893;28;20465;-70
2021/09/14 06:53:58;;;;;;;5.30;4.90;;;17.00;99.90;;;;;;4991953;28;20217;-71
2021/09/14 06:56:24;;;;;;;6.60;6.00;;;17.10;99.90;;;;;;5000539;28;20273;-71
2021/09/14 06:58:50;;;;;;;7.37;5.53;;;17.10;99.90;;;;;;4981632;28;20234;-71
2021/09/14 07:01:19;;;;;;;5.20;4.67;;;17.10;99.90;;;;;;4994038;28;20519;-71
2021/09/14 07:03:45;;;;;;;5.43;4.90;;;17.20;99.90;;;;;;5030383;28;20228;-71
2021/09/14 07:06:11;;;;;;;4.90;4.50;;;17.20;99.90;;;;;;5029002;28;20473;-71
2021/09/14 07:08:37;;;;;;;5.77;5.17;;;17.20;99.90;;;;;;5019782;28;20473;-72
2021/09/14 07:11:03;;;;;;;6.07;5.47;;;17.30;99.90;;;;;;5025492;28;20216;-72
2021/09/14 07:13:28;;;;;;;5.80;5.20;;;17.30;99.90;;;;;;5010844;28;20221;-71
2021/09/14 07:15:54;;;;;;;6.53;5.43;;;17.40;99.90;;;;;;5020916;28;20263;-71
2021/09/14 07:18:20;;;;;;;6.17;4.97;;;17.50;99.90;;;;;;5027441;28;20231;-72
2021/09/14 07:20:45;;;;;;;6.50;5.27;;;17.60;99.90;;;;;;5029218;28;20235;-71
2021/09/14 07:23:11;;;;;;;4.90;4.40;;;17.60;99.90;;;;;;5043256;28;20796;-71
2021/09/14 07:25:41;;;;;;;5.13;4.33;;;17.70;99.90;;;;;;5033951;28;20684;-73
2021/09/14 07:28:08;;;;;;;5.70;5.20;;;17.80;99.90;;;;;;5007906;28;20312;-72
2021/09/14 07:30:34;;;;;;;5.30;4.80;;;17.80;99.90;;;;;;5027078;28;20546;-73
2021/09/14 07:33:00;;;;;;;5.50;5.00;;;17.90;99.90;;;;;;5002299;28;21066;-73
2021/09/14 07:35:27;;;;;;;5.27;4.77;;;17.90;99.90;;;;;;5010306;28;20216;-73
2021/09/14 07:37:52;;;;;;;5.50;5.00;;;18.00;99.90;;;;;;4993395;28;20217;-73
2021/09/14 07:40:18;;;;;;;6.53;5.10;;;18.00;99.90;;;;;;5024965;28;20459;-71
2021/09/14 07:42:43;;;;;;;6.97;5.30;;;18.10;99.90;;;;;;5019702;28;20228;-73
2021/09/14 07:45:09;;;;;;;6.03;5.10;;;18.20;99.90;;;;;;5025820;28;20225;-71
2021/09/14 07:47:35;;;;;;;5.40;4.90;;;18.30;99.90;;;;;;5006338;28;20618;-70
2021/09/14 07:50:01;;;;;;;6.00;5.40;;;18.30;99.90;;;;;;5017787;28;20452;-70
2021/09/14 07:52:26;;;;;;;5.63;5.13;;;18.30;99.90;;;;;;5006348;28;20228;-70
2021/09/14 07:54:52;;;;;;;6.17;5.50;;;18.40;99.90;;;;;;5020419;28;20220;-70
2021/09/14 07:57:18;;;;;;;6.70;5.23;;;18.40;99.90;;;;;;5026234;28;20295;-70
2021/09/14 07:59:43;;;;;;;5.37;4.90;;;18.50;99.90;;;;;;5022043;28;20663;-72
2021/09/14 08:02:09;;;;;;;6.17;5.57;;;18.60;99.90;;;;;;5024588;28;20219;-71
2021/09/14 08:04:34;;;;;;;11.07;6.60;;;18.70;99.90;;;;;;5026265;28;20232;-71
2021/09/14 08:07:00;;;;;;;5.80;5.20;;;18.80;99.90;;;;;;5026310;28;20231;-72
2021/09/14 08:09:29;;;;;;;6.90;6.10;;;18.80;99.90;;;;;;5025864;28;20240;-71
2021/09/14 08:11:56;;;;;;;6.17;5.53;;;18.90;99.90;;;;;;5006817;28;20494;-72
2021/09/14 08:14:22;;;;;;;6.20;4.97;;;18.90;99.90;;;;;;5005913;28;20529;-72
2021/09/14 08:16:48;;;;;;;5.80;5.17;;;19.00;99.90;;;;;;4997364;28;20964;-71
2021/09/14 08:19:14;;;;;;;5.77;5.27;;;19.10;99.90;;;;;;4980736;28;20238;-71
2021/09/14 08:21:40;;;;;;;6.53;5.93;;;19.20;99.90;;;;;;5002508;28;20460;-72
2021/09/14 08:24:10;;;;;;;6.43;5.23;;;19.20;99.90;;;;;;4986562;28;20229;-71
2021/09/14 08:26:37;;;;;;;5.90;5.40;;;19.30;99.90;;;;;;5003497;28;20472;-72
2021/09/14 08:29:03;;;;;;;5.70;5.20;;;19.40;99.90;;;;;;4993408;28;20559;-72
2021/09/14 08:31:30;;;;;;;5.17;4.70;;;19.40;99.90;;;;;;5005148;28;20474;-72
2021/09/14 08:33:56;;;;;;;8.00;5.10;;;19.50;99.90;;;;;;4999333;28;20999;-72
2021/09/14 08:36:22;;;;;;;6.77;4.90;;;19.50;99.90;;;;;;5002215;28;20463;-73
2021/09/14 08:38:48;;;;;;;6.00;5.10;;;19.60;99.90;;;;;;4982955;28;20490;-72
2021/09/14 08:41:15;;;;;;;6.30;5.80;;;19.60;99.90;;;;;;5013635;28;20232;-70
2021/09/14 08:43:47;;;;;;;7.63;5.33;;;19.60;99.90;;;;;;5027099;28;20704;-72
2021/09/14 08:46:16;;;;;;;6.23;5.53;;;19.60;99.90;;;;;;4995753;28;20530;-72
2021/09/14 08:48:44;;;;;;;7.20;6.20;;;19.60;99.90;;;;;;5025817;28;20994;-72
2021/09/14 08:51:10;;;;;;;4.93;4.53;;;19.60;99.90;;;;;;4998652;28;20448;-72
2021/09/14 08:53:36;;;;;;;9.73;5.97;;;19.70;99.90;;;;;;5004408;28;20479;-72
2021/09/14 08:56:03;;;;;;;7.00;5.27;;;19.70;99.90;;;;;;4997011;28;20235;-71
2021/09/14 08:58:29;;;;;;;8.40;5.77;;;19.80;99.90;;;;;;5012148;28;20463;-72
2021/09/14 09:00:55;;;;;;;7.33;5.70;;;19.80;99.90;;;;;;5021690;28;20468;-72
2021/09/14 09:03:27;;;;;;;5.57;5.00;;;19.90;99.90;;;;;;5021185;28;20233;-72
2021/09/14 09:05:54;;;;;;;7.37;6.13;;;19.90;99.90;;;;;;5006155;28;20225;-72
2021/09/14 09:08:20;;;;;;;6.10;5.50;;;20.00;99.90;;;;;;5006194;28;20459;-72
2021/09/14 09:11:11;;;;;;;6.00;5.40;;;20.00;99.90;;;;;;4991476;28;20478;-72
2021/09/14 09:13:45;;;;;;;6.53;5.87;;;20.10;99.90;;;;;;5008019;28;20493;-73
2021/09/14 09:16:25;;;;;;;5.93;5.43;;;20.30;99.90;;;;;;5012250;28;20462;-72
2021/09/14 09:19:02;;;;;;;6.13;5.53;;;20.30;99.90;;;;;;5012791;28;20469;-72
2021/09/14 09:21:36;;;;;;;6.17;5.57;;;20.40;99.90;;;;;;4980256;28;20459;-72
2021/09/14 09:24:05;;;;;;;6.80;6.00;;;20.50;99.90;;;;;;5001051;28;20476;-72
2021/09/14 09:26:42;;;;;;;7.87;7.07;;;20.80;99.90;;;;;;5010972;28;20594;-73
2021/09/14 09:29:10;;;;;;;6.23;5.40;;;20.90;99.90;;;;;;4997102;28;20473;-73
2021/09/14 09:31:43;;;;;;;6.10;5.50;;;21.00;99.90;;;;;;5030878;28;20537;-72
2021/09/14 09:34:10;;;;;;;6.33;5.73;;;21.10;99.90;;;;;;5026769;28;20459;-72
2021/09/14 09:36:41;;;;;;;7.00;6.30;;;21.20;99.90;;;;;;5022811;28;20455;-73
2021/09/14 09:39:09;;;;;;;7.43;5.97;;;21.30;99.90;;;;;;5031100;28;20475;-73
2021/09/14 09:41:39;;;;;;;6.50;5.90;;;21.30;99.90;;;;;;5030225;28;20471;-73
2021/09/14 09:44:09;;;;;;;12.27;6.30;;;21.40;99.90;;;;;;5029779;28;20471;-72
2021/09/14 09:46:35;;;;;;;6.17;5.63;;;21.60;99.90;;;;;;5029009;28;20463;-72
2021/09/14 09:49:05;;;;;;;6.50;5.90;;;21.70;99.90;;;;;;5020588;28;20478;-72
2021/09/14 09:51:31;;;;;;;7.97;6.70;;;21.70;99.90;;;;;;5041199;28;20447;-72
2021/09/14 09:53:58;;;;;;;6.50;5.87;;;21.80;99.90;;;;;;4992183;28;20463;-73
2021/09/14 09:56:24;;;;;;;5.73;5.10;;;21.80;99.90;;;;;;5000521;28;20464;-73
2021/09/14 09:58:51;;;;;;;5.80;5.30;;;21.80;99.90;;;;;;5016566;28;20987;-72
2021/09/14 10:01:20;;;;;;;7.47;6.10;;;21.90;99.90;;;;;;5008974;28;20466;-72
2021/09/14 10:03:56;;;;;;;5.63;5.03;;;22.00;99.90;;;;;;5010902;28;21013;-72
2021/09/14 10:06:27;;;;;;;8.90;6.23;;;22.20;99.90;;;;;;5029161;28;20459;-72
2021/09/14 10:08:55;;;;;;;6.00;5.30;;;22.20;99.90;;;;;;5012178;28;20554;-73
2021/09/14 10:11:30;;;;;;;6.13;5.47;;;22.30;99.90;;;;;;5008342;28;20886;-70
2021/09/14 10:14:13;;;;;;;5.87;5.40;;;22.40;99.90;;;;;;4990935;28;20493;-72
2021/09/14 10:16:49;;;;;;;5.10;4.60;;;22.60;99.90;;;;;;5002436;28;20489;-72
2021/09/14 10:19:17;;;;;;;5.90;5.37;;;22.70;99.90;;;;;;4998660;28;20463;-71
2021/09/14 10:21:59;;;;;;;5.67;5.10;;;22.80;99.90;;;;;;5008173;28;20468;-72
2021/09/14 10:24:25;;;;;;;6.20;5.33;;;22.90;99.90;;;;;;5001799;28;20537;-72
2021/09/14 10:27:13;;;;;;;5.73;5.23;;;23.00;99.90;;;;;;5023877;28;20467;-73
2021/09/14 10:29:41;;;;;;;7.57;5.73;;;23.10;99.90;;;;;;4997437;28;20233;-72
2021/09/14 10:32:13;;;;;;;5.87;5.37;;;23.30;99.90;;;;;;4990955;28;20454;-71
2021/09/14 10:34:52;;;;;;;6.30;5.43;;;23.60;99.90;;;;;;4999901;28;20552;-72
2021/09/14 10:37:18;;;;;;;5.53;5.03;;;23.70;99.90;;;;;;5003061;28;20477;-71
2021/09/14 10:39:46;;;;;;;6.20;5.70;;;23.80;99.90;;;;;;5027186;28;20490;-72
2021/09/14 10:42:20;;;;;;;5.97;5.40;;;23.80;99.90;;;;;;5007903;28;20219;-73
2021/09/14 10:44:47;;;;;;;7.27;5.20;;;23.80;99.90;;;;;;5044844;28;20485;-72
2021/09/14 10:47:20;;;;;;;6.83;6.13;;;23.90;99.90;;;;;;5027083;28;20455;-72
2021/09/14 10:50:03;;;;;;;6.73;6.17;;;24.10;99.90;;;;;;5026202;28;20459;-73
2021/09/14 10:52:32;;;;;;;6.00;5.40;;;24.10;99.90;;;;;;5036344;28;20466;-72
2021/09/14 10:54:58;;;;;;;6.93;5.53;;;24.10;99.90;;;;;;5026212;28;20800;-72
2021/09/14 10:57:44;;;;;;;6.30;5.70;;;24.20;99.90;;;;;;5016488;28;20446;-72
2021/09/14 11:00:15;;;;;;;8.40;5.20;;;24.20;99.90;;;;;;5004496;28;20466;-72
2021/09/14 11:02:42;;;;;;;6.50;6.00;;;24.10;99.90;;;;;;5039408;28;20467;-73
2021/09/14 11:05:10;;;;;;;6.60;6.00;;;24.20;99.90;;;;;;5007531;28;20518;-72
2021/09/14 11:07:36;;;;;;;6.00;5.50;;;24.40;99.90;;;;;;5019479;28;20442;-73
2021/09/14 11:10:10;;;;;;;6.73;5.03;;;24.50;99.90;;;;;;5026151;28;20448;-72
2021/09/14 11:12:37;;;;;;;5.90;5.40;;;24.70;99.90;;;;;;5026437;28;20472;-73
2021/09/14 11:15:03;;;;;;;5.73;5.17;;;24.80;99.90;;;;;;5005854;28;20539;-72
2021/09/14 11:17:31;;;;;;;5.70;4.83;;;24.80;99.90;;;;;;5010286;28;20535;-74
2021/09/14 11:20:15;;;;;;;5.67;5.23;;;24.90;99.90;;;;;;5025198;28;20570;-73
2021/09/14 11:22:42;;;;;;;6.17;5.67;;;24.90;99.90;;;;;;5006710;28;20463;-73
2021/09/14 11:25:13;;;;;;;6.00;5.10;;;24.90;99.90;;;;;;5025572;28;20461;-72
2021/09/14 11:28:00;;;;;;;9.13;5.30;;;24.90;99.90;;;;;;5012006;28;20451;-73
2021/09/14 11:30:26;;;;;;;6.17;5.17;;;25.10;99.90;;;;;;5034695;28;20442;-73
2021/09/14 11:32:53;;;;;;;5.93;5.30;;;25.20;99.90;;;;;;5041032;28;20467;-73
2021/09/14 11:35:19;;;;;;;5.50;5.00;;;25.30;99.90;;;;;;5014276;28;20476;-71
2021/09/14 11:37:57;;;;;;;5.03;4.63;;;25.50;99.90;;;;;;5028724;28;20459;-71
2021/09/14 11:40:23;;;;;;;6.70;5.53;;;25.70;99.90;;;;;;5010816;28;20465;-71
2021/09/14 11:42:55;;;;;;;5.97;5.57;;;25.80;99.90;;;;;;5026525;28;20455;-71
2021/09/14 11:45:26;;;;;;;6.07;5.57;;;25.80;99.90;;;;;;5027190;28;20641;-72
2021/09/14 11:47:53;;;;;;;5.37;4.97;;;25.80;99.90;;;;;;5007292;28;20521;-73
2021/09/14 11:50:25;;;;;;;5.80;5.37;;;25.80;99.90;;;;;;5027161;28;20537;-72
2021/09/14 11:53:11;;;;;;;6.23;5.67;;;25.90;99.90;;;;;;5027502;28;20459;-72
2021/09/14 11:55:42;;;;;;;5.30;4.90;;;25.80;99.90;;;;;;5020550;28;20465;-72
2021/09/14 11:58:08;;;;;;;6.13;5.67;;;25.80;99.90;;;;;;5008693;28;20563;-73
2021/09/14 12:00:36;;;;;;;5.20;4.80;;;25.80;99.90;;;;;;4992647;28;20538;-72
2021/09/14 12:03:02;;;;;;;5.23;4.83;;;25.80;99.90;;;;;;5015324;28;20700;-72
2021/09/14 12:05:28;;;;;;;5.70;5.20;;;25.80;99.90;;;;;;5011876;28;20464;-73
2021/09/14 12:07:58;;;;;;;5.90;5.40;;;25.80;99.90;;;;;;5028276;28;20228;-72
2021/09/14 12:10:26;;;;;;;7.50;6.70;;;25.80;99.90;;;;;;5027924;28;20220;-72
2021/09/14 12:12:55;;;;;;;5.53;5.03;;;25.80;99.90;;;;;;5027746;28;20462;-73
2021/09/14 12:15:28;;;;;;;5.90;5.50;;;25.80;99.90;;;;;;5027760;28;20990;-74
2021/09/14 12:18:04;;;;;;;5.77;5.27;;;25.90;99.90;;;;;;5027431;28;21061;-73
2021/09/14 12:20:29;;;;;;;6.30;5.70;;;26.00;99.90;;;;;;5005021;28;20529;-72
2021/09/14 12:22:55;;;;;;;5.40;4.90;;;25.90;99.90;;;;;;5011516;28;20551;-73
2021/09/14 12:25:21;;;;;;;6.17;5.67;;;25.90;99.90;;;;;;5010547;28;20231;-73
2021/09/14 12:27:46;;;;;;;5.40;5.00;;;25.90;99.90;;;;;;5020113;28;20220;-73
2021/09/14 12:30:12;;;;;;;11.90;7.70;;;25.90;99.90;;;;;;5026890;28;20212;-73
2021/09/14 12:32:38;;;;;;;5.87;5.20;;;25.90;99.90;;;;;;5015225;28;20213;-73
2021/09/14 12:35:04;;;;;;;5.33;4.93;;;26.00;99.90;;;;;;5006270;28;20204;-72
2021/09/14 12:37:30;;;;;;;5.67;5.17;;;26.10;99.90;;;;;;5037543;28;20243;-72
2021/09/14 12:39:56;;;;;;;5.93;5.53;;;26.20;99.90;;;;;;5026141;28;20482;-74
2021/09/14 12:42:21;;;;;;;7.90;6.03;;;26.30;99.90;;;;;;5027432;28;20223;-73
2021/09/14 12:44:47;;;;;;;5.33;4.83;;;26.30;99.90;;;;;;5027769;28;20216;-74
2021/09/14 12:47:12;;;;;;;6.43;5.87;;;26.40;99.90;;;;;;5010871;28;20208;-73
2021/09/14 12:49:38;;;;;;;6.27;5.50;;;26.40;99.90;;;;;;5009797;28;20231;-73
2021/09/14 12:52:04;;;;;;;5.87;5.37;;;26.50;99.90;;;;;;5016907;28;20224;-74
2021/09/14 12:54:30;;;;;;;5.53;5.13;;;26.50;99.90;;;;;;5026527;28;20761;-70
2021/09/14 12:56:56;;;;;;;5.77;5.27;;;26.50;99.90;;;;;;5013178;28;20215;-70
2021/09/14 12:59:22;;;;;;;7.37;5.70;;;26.50;99.90;;;;;;5010527;28;20223;-70
2021/09/14 13:01:48;;;;;;;7.10;5.20;;;26.50;99.90;;;;;;5028127;28;20455;-70
2021/09/14 13:04:14;;;;;;;5.57;5.13;;;26.40;99.90;;;;;;5011328;28;20520;-70
2021/09/14 13:06:39;;;;;;;6.37;5.77;;;26.40;99.90;;;;;;4995498;28;20774;-70
2021/09/14 13:09:05;;;;;;;6.03;5.53;;;26.40;99.90;;;;;;5029122;28;20223;-71
2021/09/14 13:11:31;;;;;;;6.17;5.57;;;26.40;99.90;;;;;;5031058;28;20230;-70
2021/09/14 13:16:43;;;;;;;6.20;5.70;;;26.50;99.90;;;;;;5004992;28;20216;-70
2021/09/14 13:19:09;;;;;;;6.07;5.20;;;26.40;99.90;;;;;;5012268;28;20457;-70
2021/09/14 13:21:34;;;;;;;4.97;4.57;;;26.50;99.90;;;;;;5016184;28;20323;-70
2021/09/14 13:24:00;;;;;;;5.20;4.80;;;26.40;99.90;;;;;;5011293;28;20235;-70
2021/09/14 13:26:26;;;;;;;6.57;5.60;;;26.40;99.90;;;;;;5030383;28;20219;-71
2021/09/14 13:28:52;;;;;;;5.77;5.30;;;26.40;99.90;;;;;;5030044;28;20228;-71
2021/09/14 13:31:18;;;;;;;5.60;5.10;;;26.40;99.90;;;;;;5030488;28;20226;-70
2021/09/14 13:33:44;;;;;;;5.90;5.40;;;26.40;99.90;;;;;;5010063;28;20235;-72
2021/09/14 13:36:10;;;;;;;5.67;5.27;;;26.40;99.90;;;;;;5014525;28;20474;-70
2021/09/14 13:38:36;;;;;;;5.90;5.40;;;26.40;99.90;;;;;;4991822;28;20444;-71
2021/09/14 13:41:08;;;;;;;5.90;5.40;;;26.40;99.90;;;;;;5023746;28;20225;-70
2021/09/14 13:43:38;;;;;;;6.03;5.53;;;26.40;99.90;;;;;;5004524;28;20275;-71
2021/09/14 13:48:36;;;;;;;6.40;5.40;;;26.40;99.90;;;;;;5007865;28;20551;-70